sensor_id;sensor_type;location;lat;lon;timestamp;pressure;altitude;pressure_sealevel;temperature;humidity
79671;BME280;69137;50.878;8.050;2023-09-07T00:00:30;98827.19;;;14.67;85.11
79671;BME280;69137;50.878;8.050;2023-09-07T00:02:55;98830.25;;;14.60;85.22
79671;BME280;69137;50.878;8.050;2023-09-07T00:05:21;98829.16;;;14.61;84.74
79671;BME280;69137;50.878;8.050;2023-09-07T00:07:46;98833.00;;;14.60;84.61
79671;BME280;69137;50.878;8.050;2023-09-07T00:10:11;98826.38;;;14.67;83.30
79671;BME280;69137;50.878;8.050;2023-09-07T00:12:37;98830.19;;;14.71;84.10
79671;BME280;69137;50.878;8.050;2023-09-07T00:15:05;98826.63;;;14.70;85.26
79671;BME280;69137;50.878;8.050;2023-09-07T00:17:32;98829.41;;;14.65;85.40
79671;BME280;69137;50.878;8.050;2023-09-07T00:19:57;98824.78;;;14.55;86.07
79671;BME280;69137;50.878;8.050;2023-09-07T00:22:23;98830.56;;;14.49;86.84
79671;BME280;69137;50.878;8.050;2023-09-07T00:24:51;98832.19;;;14.50;85.79
79671;BME280;69137;50.878;8.050;2023-09-07T00:27:16;98820.69;;;14.53;84.97
79671;BME280;69137;50.878;8.050;2023-09-07T00:29:42;98824.50;;;14.52;83.77
79671;BME280;69137;50.878;8.050;2023-09-07T00:32:07;98824.25;;;14.48;83.30
79671;BME280;69137;50.878;8.050;2023-09-07T00:34:33;98829.16;;;14.51;83.43
79671;BME280;69137;50.878;8.050;2023-09-07T00:37:00;98830.81;;;14.47;83.06
79671;BME280;69137;50.878;8.050;2023-09-07T00:39:26;98822.88;;;14.46;82.31
79671;BME280;69137;50.878;8.050;2023-09-07T00:41:51;98820.69;;;14.42;82.38
79671;BME280;69137;50.878;8.050;2023-09-07T00:44:16;98826.47;;;14.41;82.94
79671;BME280;69137;50.878;8.050;2023-09-07T00:46:42;98825.66;;;14.35;84.39
79671;BME280;69137;50.878;8.050;2023-09-07T00:49:10;98815.25;;;14.27;84.41
79671;BME280;69137;50.878;8.050;2023-09-07T00:51:36;98807.81;;;14.28;84.59
79671;BME280;69137;50.878;8.050;2023-09-07T00:54:02;98803.72;;;14.20;85.47
79671;BME280;69137;50.878;8.050;2023-09-07T00:56:27;98805.94;;;14.13;86.22
79671;BME280;69137;50.878;8.050;2023-09-07T00:58:54;98812.00;;;14.10;85.57
79671;BME280;69137;50.878;8.050;2023-09-07T01:01:22;98800.19;;;14.04;84.03
79671;BME280;69137;50.878;8.050;2023-09-07T01:03:50;98797.72;;;14.03;84.74
79671;BME280;69137;50.878;8.050;2023-09-07T01:06:18;98792.53;;;14.01;85.93
79671;BME280;69137;50.878;8.050;2023-09-07T01:08:47;98796.94;;;13.92;86.80
79671;BME280;69137;50.878;8.050;2023-09-07T01:11:19;98800.81;;;13.86;86.87
79671;BME280;69137;50.878;8.050;2023-09-07T01:13:51;98802.97;;;13.89;86.50
79671;BME280;69137;50.878;8.050;2023-09-07T01:16:21;98796.69;;;13.78;87.73
79671;BME280;69137;50.878;8.050;2023-09-07T01:18:47;98799.44;;;13.68;88.12
79671;BME280;69137;50.878;8.050;2023-09-07T01:21:13;98798.34;;;13.69;87.73
79671;BME280;69137;50.878;8.050;2023-09-07T01:23:40;98796.16;;;13.71;87.08
79671;BME280;69137;50.878;8.050;2023-09-07T01:26:08;98801.09;;;13.64;87.08
79671;BME280;69137;50.878;8.050;2023-09-07T01:28:34;98789.03;;;13.65;86.71
79671;BME280;69137;50.878;8.050;2023-09-07T01:31:00;98797.25;;;13.70;86.40
79671;BME280;69137;50.878;8.050;2023-09-07T01:33:26;98798.09;;;13.65;87.19
79671;BME280;69137;50.878;8.050;2023-09-07T01:35:52;98794.25;;;13.51;87.52
79671;BME280;69137;50.878;8.050;2023-09-07T01:38:18;98793.69;;;13.54;86.94
79671;BME280;69137;50.878;8.050;2023-09-07T01:40:43;98790.41;;;13.52;87.20
79671;BME280;69137;50.878;8.050;2023-09-07T01:43:09;98788.75;;;13.51;87.16
79671;BME280;69137;50.878;8.050;2023-09-07T01:45:34;98787.66;;;13.42;87.77
79671;BME280;69137;50.878;8.050;2023-09-07T01:47:59;98789.88;;;13.35;87.83
79671;BME280;69137;50.878;8.050;2023-09-07T01:50:25;98782.44;;;13.40;87.17
79671;BME280;69137;50.878;8.050;2023-09-07T01:52:53;98784.63;;;13.38;87.03
79671;BME280;69137;50.878;8.050;2023-09-07T01:55:19;98777.50;;;13.32;87.66
79671;BME280;69137;50.878;8.050;2023-09-07T01:57:44;98778.88;;;13.29;87.15
79671;BME280;69137;50.878;8.050;2023-09-07T02:00:11;98784.38;;;13.35;86.73
79671;BME280;69137;50.878;8.050;2023-09-07T02:02:36;98773.41;;;13.35;86.03
79671;BME280;69137;50.878;8.050;2023-09-07T02:05:02;98777.78;;;13.36;86.16
79671;BME280;69137;50.878;8.050;2023-09-07T02:07:27;98772.28;;;13.30;85.72
79671;BME280;69137;50.878;8.050;2023-09-07T02:09:53;98774.78;;;13.27;85.43
79671;BME280;69137;50.878;8.050;2023-09-07T02:12:18;98775.84;;;13.26;85.13
79671;BME280;69137;50.878;8.050;2023-09-07T02:14:44;98775.00;;;13.25;84.29
79671;BME280;69137;50.878;8.050;2023-09-07T02:17:09;98774.19;;;13.25;84.16
79671;BME280;69137;50.878;8.050;2023-09-07T02:19:34;98781.03;;;13.22;84.66
79671;BME280;69137;50.878;8.050;2023-09-07T02:22:00;98775.00;;;13.20;85.54
79671;BME280;69137;50.878;8.050;2023-09-07T02:24:26;98786.53;;;13.12;86.28
79671;BME280;69137;50.878;8.050;2023-09-07T02:26:51;98781.59;;;13.14;86.08
79671;BME280;69137;50.878;8.050;2023-09-07T02:29:17;98778.59;;;13.10;87.05
79671;BME280;69137;50.878;8.050;2023-09-07T02:31:42;98776.66;;;13.06;87.21
79671;BME280;69137;50.878;8.050;2023-09-07T02:34:07;98776.38;;;12.97;88.01
79671;BME280;69137;50.878;8.050;2023-09-07T02:36:33;98781.31;;;12.95;87.30
79671;BME280;69137;50.878;8.050;2023-09-07T02:39:00;98778.81;;;12.94;87.06
79671;BME280;69137;50.878;8.050;2023-09-07T02:41:26;98781.00;;;12.92;86.74
79671;BME280;69137;50.878;8.050;2023-09-07T02:43:52;98787.03;;;12.88;87.39
79671;BME280;69137;50.878;8.050;2023-09-07T02:46:17;98784.00;;;12.80;88.29
79671;BME280;69137;50.878;8.050;2023-09-07T02:48:43;98782.91;;;12.76;88.01
79671;BME280;69137;50.878;8.050;2023-09-07T02:51:08;98771.38;;;12.74;87.90
79671;BME280;69137;50.878;8.050;2023-09-07T02:53:33;98781.53;;;12.73;88.32
79671;BME280;69137;50.878;8.050;2023-09-07T02:55:59;98771.91;;;12.65;88.29
79671;BME280;69137;50.878;8.050;2023-09-07T02:58:27;98769.72;;;12.67;87.96
79671;BME280;69137;50.878;8.050;2023-09-07T03:00:53;98766.72;;;12.69;87.46
79671;BME280;69137;50.878;8.050;2023-09-07T03:03:18;98771.09;;;12.65;87.99
79671;BME280;69137;50.878;8.050;2023-09-07T03:05:43;98769.72;;;12.62;88.01
79671;BME280;69137;50.878;8.050;2023-09-07T03:08:10;98760.66;;;12.57;88.45
79671;BME280;69137;50.878;8.050;2023-09-07T03:10:36;98765.31;;;12.51;88.90
79671;BME280;69137;50.878;8.050;2023-09-07T03:13:04;98763.66;;;12.50;87.50
79671;BME280;69137;50.878;8.050;2023-09-07T03:15:30;98764.22;;;12.52;87.01
79671;BME280;69137;50.878;8.050;2023-09-07T03:17:56;98761.47;;;12.52;87.52
79671;BME280;69137;50.878;8.050;2023-09-07T03:20:21;98756.28;;;12.56;87.21
79671;BME280;69137;50.878;8.050;2023-09-07T03:22:47;98758.72;;;12.52;87.43
79671;BME280;69137;50.878;8.050;2023-09-07T03:25:13;98754.03;;;12.48;88.13
79671;BME280;69137;50.878;8.050;2023-09-07T03:27:39;98756.75;;;12.42;87.56
79671;BME280;69137;50.878;8.050;2023-09-07T03:30:05;98761.72;;;12.40;87.92
79671;BME280;69137;50.878;8.050;2023-09-07T03:32:32;98761.72;;;12.40;87.55
79671;BME280;69137;50.878;8.050;2023-09-07T03:35:02;98760.91;;;12.50;87.02
79671;BME280;69137;50.878;8.050;2023-09-07T03:37:29;98759.84;;;12.56;86.25
79671;BME280;69137;50.878;8.050;2023-09-07T03:39:57;98765.59;;;12.55;85.27
79671;BME280;69137;50.878;8.050;2023-09-07T03:42:23;98761.50;;;12.62;85.85
79671;BME280;69137;50.878;8.050;2023-09-07T03:44:48;98757.13;;;12.61;85.98
79671;BME280;69137;50.878;8.050;2023-09-07T03:47:14;98766.41;;;12.60;85.28
79671;BME280;69137;50.878;8.050;2023-09-07T03:49:40;98760.69;;;12.67;84.93
79671;BME280;69137;50.878;8.050;2023-09-07T03:52:06;98769.19;;;12.71;85.34
79671;BME280;69137;50.878;8.050;2023-09-07T03:54:32;98766.16;;;12.62;87.08
79671;BME280;69137;50.878;8.050;2023-09-07T03:56:58;98772.16;;;12.54;87.17
79671;BME280;69137;50.878;8.050;2023-09-07T03:59:23;98765.84;;;12.43;87.53
79671;BME280;69137;50.878;8.050;2023-09-07T04:01:49;98766.88;;;12.32;87.87
79671;BME280;69137;50.878;8.050;2023-09-07T04:04:14;98773.47;;;12.31;86.96
79671;BME280;69137;50.878;8.050;2023-09-07T04:06:40;98768.56;;;12.38;85.59
79671;BME280;69137;50.878;8.050;2023-09-07T04:09:05;98764.97;;;12.27;85.37
79671;BME280;69137;50.878;8.050;2023-09-07T04:11:31;98769.59;;;12.27;85.47
79671;BME280;69137;50.878;8.050;2023-09-07T04:13:56;98761.94;;;12.29;84.81
79671;BME280;69137;50.878;8.050;2023-09-07T04:16:22;98769.09;;;12.30;85.06
79671;BME280;69137;50.878;8.050;2023-09-07T04:18:47;98772.63;;;12.25;85.70
79671;BME280;69137;50.878;8.050;2023-09-07T04:21:12;98767.13;;;12.25;86.92
79671;BME280;69137;50.878;8.050;2023-09-07T04:23:38;98767.09;;;12.15;87.66
79671;BME280;69137;50.878;8.050;2023-09-07T04:26:07;98776.09;;;12.10;87.15
79671;BME280;69137;50.878;8.050;2023-09-07T04:28:33;98774.97;;;12.06;86.99
79671;BME280;69137;50.878;8.050;2023-09-07T04:30:59;98773.91;;;12.07;86.62
79671;BME280;69137;50.878;8.050;2023-09-07T04:33:25;98779.13;;;12.14;85.58
79671;BME280;69137;50.878;8.050;2023-09-07T04:35:50;98784.91;;;12.17;84.97
79671;BME280;69137;50.878;8.050;2023-09-07T04:38:15;98779.16;;;12.19;84.36
79671;BME280;69137;50.878;8.050;2023-09-07T04:40:41;98784.94;;;12.22;84.55
79671;BME280;69137;50.878;8.050;2023-09-07T04:43:06;98782.44;;;12.16;84.11
79671;BME280;69137;50.878;8.050;2023-09-07T04:45:32;98795.00;;;12.07;84.96
79671;BME280;69137;50.878;8.050;2023-09-07T04:47:57;98798.25;;;12.03;85.92
79671;BME280;69137;50.878;8.050;2023-09-07T04:50:22;98792.19;;;11.96;86.30
79671;BME280;69137;50.878;8.050;2023-09-07T04:52:48;98797.13;;;11.94;86.81
79671;BME280;69137;50.878;8.050;2023-09-07T04:55:13;98795.72;;;11.92;87.33
79671;BME280;69137;50.878;8.050;2023-09-07T04:57:39;98800.63;;;11.90;86.95
79671;BME280;69137;50.878;8.050;2023-09-07T05:00:06;98796.28;;;11.94;85.65
79671;BME280;69137;50.878;8.050;2023-09-07T05:02:33;98799.09;;;12.04;84.94
79671;BME280;69137;50.878;8.050;2023-09-07T05:05:04;98798.72;;;11.90;85.62
79671;BME280;69137;50.878;8.050;2023-09-07T05:07:29;98795.97;;;11.90;85.56
79671;BME280;69137;50.878;8.050;2023-09-07T05:09:54;98798.44;;;11.87;86.12
79671;BME280;69137;50.878;8.050;2023-09-07T05:12:20;98794.13;;;11.96;86.22
79671;BME280;69137;50.878;8.050;2023-09-07T05:14:45;98791.38;;;11.96;85.92
79671;BME280;69137;50.878;8.050;2023-09-07T05:17:11;98782.88;;;11.97;86.54
79671;BME280;69137;50.878;8.050;2023-09-07T05:19:37;98790.63;;;12.11;85.87
79671;BME280;69137;50.878;8.050;2023-09-07T05:22:02;98790.00;;;11.98;85.19
79671;BME280;69137;50.878;8.050;2023-09-07T05:24:28;98797.72;;;12.01;84.94
79671;BME280;69137;50.878;8.050;2023-09-07T05:26:54;98794.66;;;11.98;84.92
79671;BME280;69137;50.878;8.050;2023-09-07T05:29:20;98799.59;;;11.96;84.51
79671;BME280;69137;50.878;8.050;2023-09-07T05:31:46;98798.22;;;11.98;84.56
79671;BME280;69137;50.878;8.050;2023-09-07T05:34:12;98803.97;;;11.97;84.37
79671;BME280;69137;50.878;8.050;2023-09-07T05:36:37;98806.97;;;11.95;85.55
79671;BME280;69137;50.878;8.050;2023-09-07T05:39:03;98801.22;;;11.97;84.68
79671;BME280;69137;50.878;8.050;2023-09-07T05:41:29;98810.25;;;11.97;84.29
79671;BME280;69137;50.878;8.050;2023-09-07T05:43:55;98812.50;;;12.06;84.62
79671;BME280;69137;50.878;8.050;2023-09-07T05:46:20;98814.41;;;12.05;85.20
79671;BME280;69137;50.878;8.050;2023-09-07T05:48:46;98817.69;;;12.02;86.20
79671;BME280;69137;50.878;8.050;2023-09-07T05:51:11;98808.41;;;12.08;86.42
79671;BME280;69137;50.878;8.050;2023-09-07T05:53:39;98819.38;;;12.13;86.85
79671;BME280;69137;50.878;8.050;2023-09-07T05:56:04;98807.38;;;12.19;87.51
79671;BME280;69137;50.878;8.050;2023-09-07T05:58:29;98815.59;;;12.19;87.80
79671;BME280;69137;50.878;8.050;2023-09-07T06:00:55;98813.72;;;12.30;87.38
79671;BME280;69137;50.878;8.050;2023-09-07T06:03:20;98816.78;;;12.39;87.81
79671;BME280;69137;50.878;8.050;2023-09-07T06:05:46;98819.00;;;12.52;86.98
79671;BME280;69137;50.878;8.050;2023-09-07T06:08:11;98816.63;;;12.66;86.88
79671;BME280;69137;50.878;8.050;2023-09-07T06:10:37;98821.31;;;12.86;86.47
79671;BME280;69137;50.878;8.050;2023-09-07T06:13:03;98823.53;;;12.99;86.01
79671;BME280;69137;50.878;8.050;2023-09-07T06:15:29;98817.50;;;13.12;85.81
79671;BME280;69137;50.878;8.050;2023-09-07T06:17:55;98819.75;;;13.26;85.29
79671;BME280;69137;50.878;8.050;2023-09-07T06:20:20;98818.13;;;13.40;85.29
79671;BME280;69137;50.878;8.050;2023-09-07T06:22:46;98820.31;;;13.53;85.11
79671;BME280;69137;50.878;8.050;2023-09-07T06:25:11;98823.06;;;13.69;84.57
79671;BME280;69137;50.878;8.050;2023-09-07T06:27:37;98814.78;;;13.84;83.85
79671;BME280;69137;50.878;8.050;2023-09-07T06:30:07;98816.97;;;13.92;83.65
79671;BME280;69137;50.878;8.050;2023-09-07T06:32:32;98812.53;;;14.12;83.21
79671;BME280;69137;50.878;8.050;2023-09-07T06:34:58;98815.47;;;14.36;82.40
79671;BME280;69137;50.878;8.050;2023-09-07T06:37:24;98817.34;;;14.61;82.43
79671;BME280;69137;50.878;8.050;2023-09-07T06:39:50;98812.84;;;14.75;82.28
79671;BME280;69137;50.878;8.050;2023-09-07T06:42:15;98813.06;;;14.89;81.88
79671;BME280;69137;50.878;8.050;2023-09-07T06:44:41;98811.91;;;15.00;81.51
79671;BME280;69137;50.878;8.050;2023-09-07T06:47:08;98816.56;;;15.05;81.30
79671;BME280;69137;50.878;8.050;2023-09-07T06:49:33;98818.66;;;15.18;81.05
79671;BME280;69137;50.878;8.050;2023-09-07T06:51:59;98815.41;;;15.45;78.86
79671;BME280;69137;50.878;8.050;2023-09-07T06:54:27;98815.00;;;15.62;78.41
79671;BME280;69137;50.878;8.050;2023-09-07T06:56:52;98820.72;;;15.71;77.96
79671;BME280;69137;50.878;8.050;2023-09-07T06:59:18;98819.72;;;15.91;77.29
79671;BME280;69137;50.878;8.050;2023-09-07T07:01:43;98824.38;;;15.96;77.72
79671;BME280;69137;50.878;8.050;2023-09-07T07:04:08;98831.63;;;16.10;77.16
79671;BME280;69137;50.878;8.050;2023-09-07T07:06:34;98821.84;;;16.23;76.94
79671;BME280;69137;50.878;8.050;2023-09-07T07:09:00;98833.47;;;16.44;75.29
79671;BME280;69137;50.878;8.050;2023-09-07T07:11:25;98837.38;;;16.62;74.39
79671;BME280;69137;50.878;8.050;2023-09-07T07:13:51;98830.13;;;16.71;74.59
79671;BME280;69137;50.878;8.050;2023-09-07T07:16:16;98835.53;;;17.00;74.33
79671;BME280;69137;50.878;8.050;2023-09-07T07:18:42;98832.41;;;17.07;74.78
79671;BME280;69137;50.878;8.050;2023-09-07T07:21:07;98835.09;;;17.31;76.89
79671;BME280;69137;50.878;8.050;2023-09-07T07:23:34;98831.78;;;17.48;74.13
79671;BME280;69137;50.878;8.050;2023-09-07T07:26:00;98840.53;;;17.69;73.67
79671;BME280;69137;50.878;8.050;2023-09-07T07:28:25;98834.88;;;17.79;73.73
79671;BME280;69137;50.878;8.050;2023-09-07T07:30:51;98840.84;;;17.86;73.30
79671;BME280;69137;50.878;8.050;2023-09-07T07:33:18;98839.94;;;17.91;72.10
79671;BME280;69137;50.878;8.050;2023-09-07T07:35:44;98836.25;;;17.96;71.76
79671;BME280;69137;50.878;8.050;2023-09-07T07:38:10;98836.81;;;18.11;71.94
79671;BME280;69137;50.878;8.050;2023-09-07T07:40:38;98835.28;;;18.19;71.68
79671;BME280;69137;50.878;8.050;2023-09-07T07:43:04;98840.00;;;18.32;71.60
79671;BME280;69137;50.878;8.050;2023-09-07T07:45:29;98828.22;;;18.41;71.34
79671;BME280;69137;50.878;8.050;2023-09-07T07:47:54;98831.59;;;18.65;70.57
79671;BME280;69137;50.878;8.050;2023-09-07T07:50:20;98832.19;;;18.62;70.34
79671;BME280;69137;50.878;8.050;2023-09-07T07:52:45;98830.34;;;18.71;71.30
79671;BME280;69137;50.878;8.050;2023-09-07T07:55:11;98829.56;;;18.85;71.53
79671;BME280;69137;50.878;8.050;2023-09-07T07:57:37;98833.13;;;18.99;70.56
79671;BME280;69137;50.878;8.050;2023-09-07T08:00:04;98830.47;;;19.30;69.78
79671;BME280;69137;50.878;8.050;2023-09-07T08:02:30;98838.44;;;19.91;68.70
79671;BME280;69137;50.878;8.050;2023-09-07T08:04:55;98839.34;;;20.40;68.36
79671;BME280;69137;50.878;8.050;2023-09-07T08:07:21;98837.28;;;21.29;63.61
79671;BME280;69137;50.878;8.050;2023-09-07T08:09:46;98831.38;;;21.83;60.27
79671;BME280;69137;50.878;8.050;2023-09-07T08:12:12;98841.19;;;21.97;61.31
79671;BME280;69137;50.878;8.050;2023-09-07T08:14:38;98836.88;;;22.26;60.31
79671;BME280;69137;50.878;8.050;2023-09-07T08:17:03;98828.38;;;22.61;58.47
79671;BME280;69137;50.878;8.050;2023-09-07T08:19:29;98830.63;;;22.67;58.42
79671;BME280;69137;50.878;8.050;2023-09-07T08:21:54;98832.13;;;22.65;57.23
79671;BME280;69137;50.878;8.050;2023-09-07T08:24:20;98829.47;;;22.98;56.43
79671;BME280;69137;50.878;8.050;2023-09-07T08:26:45;98834.94;;;23.16;56.51
79671;BME280;69137;50.878;8.050;2023-09-07T08:29:13;98833.16;;;23.32;55.76
79671;BME280;69137;50.878;8.050;2023-09-07T08:31:38;98833.16;;;23.32;56.01
79671;BME280;69137;50.878;8.050;2023-09-07T08:34:07;98833.84;;;23.50;56.44
79671;BME280;69137;50.878;8.050;2023-09-07T08:36:37;98827.53;;;23.62;54.60
79671;BME280;69137;50.878;8.050;2023-09-07T08:39:03;98834.03;;;23.66;54.30
79671;BME280;69137;50.878;8.050;2023-09-07T08:41:42;98832.75;;;23.84;53.66
79671;BME280;69137;50.878;8.050;2023-09-07T08:44:20;98832.47;;;24.10;52.65
79671;BME280;69137;50.878;8.050;2023-09-07T08:46:49;98833.19;;;24.19;53.50
79671;BME280;69137;50.878;8.050;2023-09-07T08:49:15;98835.53;;;24.42;53.30
79671;BME280;69137;50.878;8.050;2023-09-07T08:51:44;98840.25;;;24.50;53.73
79671;BME280;69137;50.878;8.050;2023-09-07T08:54:11;98835.88;;;24.40;53.45
79671;BME280;69137;50.878;8.050;2023-09-07T08:56:37;98830.69;;;24.63;52.92
79671;BME280;69137;50.878;8.050;2023-09-07T08:59:02;98833.84;;;24.62;52.08
79671;BME280;69137;50.878;8.050;2023-09-07T09:01:30;98837.34;;;24.71;51.37
79671;BME280;69137;50.878;8.050;2023-09-07T09:03:57;98837.91;;;25.01;51.88
79671;BME280;69137;50.878;8.050;2023-09-07T09:06:23;98826.34;;;25.27;48.78
79671;BME280;69137;50.878;8.050;2023-09-07T09:08:50;98832.75;;;25.16;48.65
79671;BME280;69137;50.878;8.050;2023-09-07T09:11:19;98835.97;;;25.42;48.42
79671;BME280;69137;50.878;8.050;2023-09-07T09:13:45;98828.09;;;25.60;47.77
79671;BME280;69137;50.878;8.050;2023-09-07T09:16:11;98822.25;;;25.37;48.32
79671;BME280;69137;50.878;8.050;2023-09-07T09:21:15;98824.59;;;25.23;50.14
79671;BME280;69137;50.878;8.050;2023-09-07T09:23:41;98818.88;;;25.32;49.97
79671;BME280;69137;50.878;8.050;2023-09-07T09:26:06;98814.22;;;25.11;50.90
79671;BME280;69137;50.878;8.050;2023-09-07T09:28:35;98818.69;;;25.53;49.54
79671;BME280;69137;50.878;8.050;2023-09-07T09:31:02;98814.22;;;25.36;49.68
79671;BME280;69137;50.878;8.050;2023-09-07T09:33:32;98805.13;;;25.26;50.29
79671;BME280;69137;50.878;8.050;2023-09-07T09:35:58;98807.44;;;25.37;50.99
79671;BME280;69137;50.878;8.050;2023-09-07T09:38:24;98811.56;;;25.83;48.98
79671;BME280;69137;50.878;8.050;2023-09-07T09:40:51;98797.28;;;25.72;49.36
79671;BME280;69137;50.878;8.050;2023-09-07T09:43:19;98798.16;;;25.61;49.57
79671;BME280;69137;50.878;8.050;2023-09-07T09:45:45;98799.00;;;26.05;48.06
79671;BME280;69137;50.878;8.050;2023-09-07T09:48:10;98791.34;;;26.34;48.52
79671;BME280;69137;50.878;8.050;2023-09-07T09:50:37;98802.63;;;26.22;48.13
79671;BME280;69137;50.878;8.050;2023-09-07T09:53:07;98788.63;;;26.22;48.11
79671;BME280;69137;50.878;8.050;2023-09-07T09:55:36;98785.53;;;26.27;46.74
79671;BME280;69137;50.878;8.050;2023-09-07T09:58:02;98789.31;;;26.50;47.50
79671;BME280;69137;50.878;8.050;2023-09-07T10:00:28;98790.50;;;26.49;47.10
79671;BME280;69137;50.878;8.050;2023-09-07T10:03:05;98788.72;;;26.73;46.55
79671;BME280;69137;50.878;8.050;2023-09-07T10:05:32;98787.78;;;26.69;46.32
79671;BME280;69137;50.878;8.050;2023-09-07T10:08:08;98780.75;;;26.43;47.64
79671;BME280;69137;50.878;8.050;2023-09-07T10:10:37;98786.44;;;26.47;46.89
79671;BME280;69137;50.878;8.050;2023-09-07T10:13:04;98774.72;;;26.57;48.25
79671;BME280;69137;50.878;8.050;2023-09-07T10:15:31;98771.84;;;26.89;46.43
79671;BME280;69137;50.878;8.050;2023-09-07T10:20:35;98772.16;;;27.19;44.63
79671;BME280;69137;50.878;8.050;2023-09-07T10:23:11;98771.78;;;27.40;45.41
79671;BME280;69137;50.878;8.050;2023-09-07T10:25:36;98757.31;;;27.18;45.19
79671;BME280;69137;50.878;8.050;2023-09-07T10:28:02;98763.75;;;27.03;45.76
79671;BME280;69137;50.878;8.050;2023-09-07T10:30:29;98762.47;;;27.16;45.91
79671;BME280;69137;50.878;8.050;2023-09-07T10:32:54;98760.34;;;27.49;44.60
79671;BME280;69137;50.878;8.050;2023-09-07T10:35:20;98757.22;;;27.54;44.51
79671;BME280;69137;50.878;8.050;2023-09-07T10:37:49;98755.59;;;27.72;44.49
79671;BME280;69137;50.878;8.050;2023-09-07T10:40:21;98750.03;;;27.76;44.15
79671;BME280;69137;50.878;8.050;2023-09-07T10:42:47;98754.03;;;27.75;42.19
79671;BME280;69137;50.878;8.050;2023-09-07T10:45:15;98751.78;;;27.61;42.75
79671;BME280;69137;50.878;8.050;2023-09-07T10:47:45;98755.81;;;27.63;43.50
79671;BME280;69137;50.878;8.050;2023-09-07T10:50:12;98753.53;;;27.50;44.09
79671;BME280;69137;50.878;8.050;2023-09-07T10:52:41;98750.16;;;27.40;43.92
79671;BME280;69137;50.878;8.050;2023-09-07T10:55:11;98752.94;;;27.60;44.02
79671;BME280;69137;50.878;8.050;2023-09-07T10:57:44;98750.56;;;27.62;44.08
79671;BME280;69137;50.878;8.050;2023-09-07T11:00:11;98751.72;;;27.38;43.21
79671;BME280;69137;50.878;8.050;2023-09-07T11:02:37;98747.66;;;27.35;43.13
79671;BME280;69137;50.878;8.050;2023-09-07T11:05:03;98745.88;;;27.47;44.41
79671;BME280;69137;50.878;8.050;2023-09-07T11:07:29;98744.00;;;27.54;44.17
79671;BME280;69137;50.878;8.050;2023-09-07T11:09:55;98750.38;;;27.51;41.97
79671;BME280;69137;50.878;8.050;2023-09-07T11:12:21;98744.69;;;27.28;42.61
79671;BME280;69137;50.878;8.050;2023-09-07T11:14:53;98740.19;;;27.43;41.43
79671;BME280;69137;50.878;8.050;2023-09-07T11:17:19;98735.47;;;27.28;42.83
79671;BME280;69137;50.878;8.050;2023-09-07T11:19:53;98731.97;;;27.54;40.98
79671;BME280;69137;50.878;8.050;2023-09-07T11:22:19;98727.03;;;27.47;42.53
79671;BME280;69137;50.878;8.050;2023-09-07T11:24:46;98727.94;;;27.51;40.60
79671;BME280;69137;50.878;8.050;2023-09-07T11:27:11;98727.63;;;27.56;40.57
79671;BME280;69137;50.878;8.050;2023-09-07T11:29:37;98722.75;;;27.53;40.63
79671;BME280;69137;50.878;8.050;2023-09-07T11:32:08;98716.25;;;27.49;41.02
79671;BME280;69137;50.878;8.050;2023-09-07T11:34:34;98714.25;;;27.69;40.04
79671;BME280;69137;50.878;8.050;2023-09-07T11:37:02;98719.97;;;27.53;40.26
79671;BME280;69137;50.878;8.050;2023-09-07T11:39:28;98717.97;;;27.54;40.43
79671;BME280;69137;50.878;8.050;2023-09-07T11:41:54;98709.97;;;27.56;39.87
79671;BME280;69137;50.878;8.050;2023-09-07T11:44:20;98709.59;;;27.57;39.92
79671;BME280;69137;50.878;8.050;2023-09-07T11:46:46;98715.75;;;27.43;40.32
79671;BME280;69137;50.878;8.050;2023-09-07T11:49:11;98710.16;;;27.86;39.84
79671;BME280;69137;50.878;8.050;2023-09-07T11:51:37;98707.78;;;28.11;38.47
79671;BME280;69137;50.878;8.050;2023-09-07T11:54:03;98716.06;;;28.27;38.49
79671;BME280;69137;50.878;8.050;2023-09-07T11:56:29;98722.31;;;28.17;39.25
79671;BME280;69137;50.878;8.050;2023-09-07T11:58:55;98724.63;;;27.88;38.57
79671;BME280;69137;50.878;8.050;2023-09-07T12:01:21;98710.59;;;28.11;38.72
79671;BME280;69137;50.878;8.050;2023-09-07T12:03:46;98721.31;;;28.28;38.28
79671;BME280;69137;50.878;8.050;2023-09-07T12:06:13;98712.41;;;28.00;38.08
79671;BME280;69137;50.878;8.050;2023-09-07T12:08:41;98707.97;;;27.99;38.49
79671;BME280;69137;50.878;8.050;2023-09-07T12:11:08;98706.19;;;27.87;35.84
79671;BME280;69137;50.878;8.050;2023-09-07T12:13:33;98707.47;;;27.93;36.79
79671;BME280;69137;50.878;8.050;2023-09-07T12:15:58;98704.47;;;28.05;36.42
79671;BME280;69137;50.878;8.050;2023-09-07T12:18:24;98700.06;;;28.04;36.23
79671;BME280;69137;50.878;8.050;2023-09-07T12:20:49;98701.97;;;28.23;35.02
79671;BME280;69137;50.878;8.050;2023-09-07T12:23:15;98700.09;;;28.31;35.78
79671;BME280;69137;50.878;8.050;2023-09-07T12:25:40;98688.94;;;28.12;36.55
79671;BME280;69137;50.878;8.050;2023-09-07T12:28:05;98684.41;;;28.30;35.18
79671;BME280;69137;50.878;8.050;2023-09-07T12:30:31;98686.88;;;28.58;35.55
79671;BME280;69137;50.878;8.050;2023-09-07T12:32:56;98682.25;;;28.73;34.10
79671;BME280;69137;50.878;8.050;2023-09-07T12:35:21;98681.31;;;28.62;35.24
79671;BME280;69137;50.878;8.050;2023-09-07T12:37:47;98695.00;;;28.40;35.00
79671;BME280;69137;50.878;8.050;2023-09-07T12:40:13;98691.69;;;28.58;34.50
79671;BME280;69137;50.878;8.050;2023-09-07T12:42:42;98686.50;;;28.90;34.25
79671;BME280;69137;50.878;8.050;2023-09-07T12:45:09;98692.88;;;28.87;34.90
79671;BME280;69137;50.878;8.050;2023-09-07T12:47:35;98693.03;;;28.67;35.00
79671;BME280;69137;50.878;8.050;2023-09-07T12:50:01;98675.94;;;28.53;34.43
79671;BME280;69137;50.878;8.050;2023-09-07T12:52:27;98687.66;;;28.85;33.06
79671;BME280;69137;50.878;8.050;2023-09-07T12:54:53;98675.81;;;29.03;32.67
79671;BME280;69137;50.878;8.050;2023-09-07T12:57:19;98679.94;;;28.79;32.80
79671;BME280;69137;50.878;8.050;2023-09-07T12:59:44;98674.03;;;28.57;34.30